Time;durP1;ratioP1;P1;durP2;ratioP2;P2;SDS_P1;SDS_P2;PMS_P1;PMS_P2;Temp;Humidity;BMP_temperature;BMP_pressure;BME280_temperature;BME280_humidity;BME280_pressure;Samples;Min_cycle;Max_cycle;Signal;HPM_P1;HPM_P2
2023/05/03 00:01:42;;;;;;;25.75;13.00;;;6.30;99.90;;;;;;5050537;28;20032;-82
2023/05/03 00:04:08;;;;;;;26.45;13.40;;;6.30;99.90;;;;;;5036036;28;20503;-82
2023/05/03 00:06:34;;;;;;;34.47;12.60;;;6.20;99.90;;;;;;5053029;28;20028;-82
2023/05/03 00:08:59;;;;;;;28.38;12.65;;;6.30;99.90;;;;;;5052892;28;20576;-82
2023/05/03 00:11:25;;;;;;;25.13;11.77;;;6.30;99.90;;;;;;5053114;28;20032;-81
2023/05/03 00:13:51;;;;;;;30.95;13.30;;;6.20;99.90;;;;;;5036845;28;20040;-81
2023/05/03 00:16:18;;;;;;;29.83;12.35;;;6.20;99.90;;;;;;5048042;28;20029;-81
2023/05/03 00:18:44;;;;;;;26.95;12.80;;;6.10;99.90;;;;;;5049488;28;20124;-81
2023/05/03 00:21:09;;;;;;;32.58;13.48;;;6.10;99.90;;;;;;5036204;28;20155;-82
2023/05/03 00:24:19;;;;;;;29.65;12.73;;;6.10;99.90;;;;;;5052065;28;20037;-82
2023/05/03 00:26:45;;;;;;;32.95;13.18;;;6.00;99.90;;;;;;5031405;28;20033;-82
2023/05/03 00:29:10;;;;;;;25.08;12.18;;;6.00;99.90;;;;;;5046797;28;20103;-82
2023/05/03 00:31:48;;;;;;;26.38;13.13;;;5.90;99.90;;;;;;5036541;28;20071;-82
2023/05/03 00:34:14;;;;;;;28.50;13.20;;;5.90;99.90;;;;;;5034626;28;20492;-82
2023/05/03 00:36:39;;;;;;;28.50;13.32;;;5.90;99.90;;;;;;5039897;28;20056;-81
2023/05/03 00:39:05;;;;;;;33.97;14.35;;;5.90;99.90;;;;;;5035342;28;20029;-82
2023/05/03 00:41:31;;;;;;;28.27;13.65;;;5.90;99.90;;;;;;5045753;28;20033;-82
2023/05/03 00:43:57;;;;;;;30.52;15.40;;;5.90;99.90;;;;;;5025681;28;20036;-82
2023/05/03 00:46:22;;;;;;;29.50;14.35;;;5.90;99.90;;;;;;5034959;28;20107;-82
2023/05/03 00:48:48;;;;;;;36.65;14.85;;;5.80;99.90;;;;;;5051483;28;20024;-82
2023/05/03 00:51:15;;;;;;;36.72;14.05;;;5.80;99.90;;;;;;5052632;28;20040;-81
2023/05/03 00:53:42;;;;;;;31.70;14.15;;;5.80;99.90;;;;;;5039454;28;20036;-82
2023/05/03 00:56:08;;;;;;;32.40;14.25;;;5.70;99.90;;;;;;5035258;28;20044;-82
2023/05/03 00:58:38;;;;;;;29.27;15.15;;;5.70;99.90;;;;;;5035354;28;20029;-82
2023/05/03 01:01:06;;;;;;;28.55;14.52;;;5.60;99.90;;;;;;5033461;28;20036;-82
2023/05/03 01:03:32;;;;;;;39.53;15.35;;;5.50;99.90;;;;;;5046407;28;20029;-81
2023/05/03 01:06:19;;;;;;;29.65;14.85;;;5.50;99.90;;;;;;5035190;28;20036;-81
2023/05/03 01:09:26;;;;;;;35.70;16.25;;;5.50;99.90;;;;;;5051860;28;20017;-82
2023/05/03 01:12:13;;;;;;;33.05;14.68;;;5.50;99.90;;;;;;5035186;28;20067;-82
2023/05/03 01:14:45;;;;;;;30.50;14.50;;;5.50;99.90;;;;;;5024980;28;20033;-82
2023/05/03 01:17:12;;;;;;;29.38;14.60;;;5.50;99.90;;;;;;5050787;28;20106;-82
2023/05/03 01:19:50;;;;;;;37.53;15.18;;;5.50;99.90;;;;;;5035157;28;20439;-81
2023/05/03 01:22:45;;;;;;;32.17;14.85;;;5.50;99.90;;;;;;5043970;28;20116;-81
2023/05/03 01:25:13;;;;;;;42.90;16.38;;;5.50;99.90;;;;;;5032393;28;20434;-82
2023/05/03 01:27:40;;;;;;;37.30;16.65;;;5.40;99.90;;;;;;5051501;28;20044;-82
2023/05/03 01:30:10;;;;;;;35.25;15.40;;;5.40;99.90;;;;;;5037793;28;20024;-83
2023/05/03 01:33:15;;;;;;;39.50;16.35;;;5.40;99.90;;;;;;5051627;28;20028;-82
2023/05/03 01:35:59;;;;;;;39.00;15.82;;;5.40;99.90;;;;;;5043903;28;20072;-82
2023/05/03 01:38:27;;;;;;;42.03;15.20;;;5.40;99.90;;;;;;5039681;28;20037;-82
2023/05/03 01:40:56;;;;;;;34.25;16.45;;;5.40;99.90;;;;;;5035017;28;20374;-82
2023/05/03 01:43:23;;;;;;;47.40;17.75;;;5.40;99.90;;;;;;5031843;28;20045;-81
2023/05/03 01:45:49;;;;;;;34.83;15.45;;;5.40;99.90;;;;;;5035361;28;20569;-81
2023/05/03 01:48:17;;;;;;;35.42;15.40;;;5.40;99.90;;;;;;5055425;28;20036;-82
2023/05/03 01:50:43;;;;;;;44.40;18.23;;;5.40;99.90;;;;;;5041979;28;20026;-81
2023/05/03 01:53:09;;;;;;;38.78;15.80;;;5.40;99.90;;;;;;5038683;28;20372;-82
2023/05/03 01:55:35;;;;;;;33.13;14.40;;;5.30;99.90;;;;;;5055249;28;20024;-82
2023/05/03 01:58:00;;;;;;;37.15;15.05;;;5.30;99.90;;;;;;5037776;28;20484;-81
2023/05/03 02:00:26;;;;;;;38.85;15.80;;;5.30;99.90;;;;;;5043972;28;20037;-82
2023/05/03 02:03:01;;;;;;;32.00;15.55;;;5.30;99.90;;;;;;5037724;28;20047;-81
2023/05/03 02:05:27;;;;;;;41.13;15.30;;;5.30;99.90;;;;;;5054773;28;20036;-82
2023/05/03 02:07:53;;;;;;;32.53;15.32;;;5.30;99.90;;;;;;5046591;28;20112;-82
2023/05/03 02:10:19;;;;;;;32.13;15.57;;;5.20;99.90;;;;;;5054964;28;20049;-82
2023/05/03 02:12:44;;;;;;;35.40;16.20;;;5.10;99.90;;;;;;5038582;28;20029;-82
2023/05/03 02:15:11;;;;;;;35.25;15.63;;;5.10;99.90;;;;;;5042208;28;20078;-83
2023/05/03 02:17:38;;;;;;;39.67;15.35;;;5.10;99.90;;;;;;5038598;28;20502;-82
2023/05/03 02:20:04;;;;;;;33.35;15.73;;;5.00;99.90;;;;;;5041404;28;20075;-82
2023/05/03 02:22:52;;;;;;;34.42;15.30;;;5.00;99.90;;;;;;5034974;28;20087;-82
2023/05/03 02:25:18;;;;;;;37.95;16.65;;;5.00;99.90;;;;;;5044263;28;20484;-83
2023/05/03 02:27:44;;;;;;;33.92;14.82;;;5.00;99.90;;;;;;5047617;28;20033;-82
2023/05/03 02:30:10;;;;;;;32.95;15.90;;;4.90;99.90;;;;;;5055049;28;20040;-82
2023/05/03 02:32:41;;;;;;;39.60;14.85;;;4.90;99.90;;;;;;5056210;28;20120;-82
2023/05/03 02:35:08;;;;;;;38.15;16.67;;;4.90;99.90;;;;;;5029412;28;20029;-82
2023/05/03 02:37:34;;;;;;;34.75;15.45;;;4.80;99.90;;;;;;5054494;28;20654;-82
2023/05/03 02:40:04;;;;;;;32.13;14.68;;;4.80;99.90;;;;;;5025526;28;20111;-82
2023/05/03 02:42:30;;;;;;;39.92;17.83;;;4.80;99.90;;;;;;5037218;28;20029;-81
2023/05/03 02:44:56;;;;;;;32.78;14.77;;;4.70;99.90;;;;;;5037818;28;20028;-82
2023/05/03 02:47:23;;;;;;;35.88;15.52;;;4.70;99.90;;;;;;5053829;28;20029;-82
2023/05/03 02:49:49;;;;;;;33.58;15.35;;;4.70;99.90;;;;;;5037430;28;20032;-82
2023/05/03 02:52:15;;;;;;;32.45;14.98;;;4.70;99.90;;;;;;5054220;28;20480;-82
2023/05/03 02:54:41;;;;;;;34.97;15.98;;;4.70;99.90;;;;;;5038135;28;20032;-82
2023/05/03 02:57:10;;;;;;;38.15;15.60;;;4.70;99.90;;;;;;5041578;28;20024;-82
2023/05/03 02:59:37;;;;;;;31.33;15.60;;;4.70;99.90;;;;;;5037646;28;20116;-82
2023/05/03 03:02:02;;;;;;;37.08;15.73;;;4.70;99.90;;;;;;5041305;28;20067;-82
2023/05/03 03:04:31;;;;;;;33.25;14.02;;;4.70;99.90;;;;;;5044971;28;20064;-82
2023/05/03 03:06:57;;;;;;;33.05;14.27;;;4.70;99.90;;;;;;5025859;28;20446;-81
2023/05/03 03:09:23;;;;;;;34.38;15.30;;;4.80;99.90;;;;;;5051680;28;20431;-82
2023/05/03 03:11:51;;;;;;;42.72;15.55;;;4.80;99.90;;;;;;5037188;28;20036;-82
2023/05/03 03:14:17;;;;;;;37.00;14.73;;;4.80;99.90;;;;;;5052465;28;20029;-82
2023/05/03 03:16:45;;;;;;;34.67;14.82;;;4.80;99.90;;;;;;5042826;28;20454;-82
2023/05/03 03:19:11;;;;;;;43.05;16.80;;;4.80;99.90;;;;;;5046514;28;20480;-82
2023/05/03 03:21:37;;;;;;;35.15;15.57;;;4.80;99.90;;;;;;5050501;28;20033;-81
2023/05/03 03:24:04;;;;;;;35.00;15.48;;;4.80;99.90;;;;;;5038322;28;20033;-82
2023/05/03 03:26:29;;;;;;;38.83;15.55;;;4.70;99.90;;;;;;5052988;28;20037;-81
2023/05/03 03:28:57;;;;;;;37.97;15.48;;;4.60;99.90;;;;;;5054264;28;20035;-82
2023/05/03 03:31:24;;;;;;;34.47;15.32;;;4.60;99.90;;;;;;5053552;28;20611;-81
2023/05/03 03:33:50;;;;;;;40.05;15.55;;;4.60;99.90;;;;;;5037387;28;20024;-82
2023/05/03 03:36:19;;;;;;;42.80;15.85;;;4.50;99.90;;;;;;5053247;28;20029;-82
2023/05/03 03:38:47;;;;;;;33.05;15.55;;;4.50;99.90;;;;;;5036876;28;20021;-82
2023/05/03 03:41:12;;;;;;;38.92;14.90;;;4.50;99.90;;;;;;5045947;28;20025;-82
2023/05/03 03:43:38;;;;;;;41.33;16.75;;;4.50;99.90;;;;;;5037091;28;20498;-81
2023/05/03 03:46:09;;;;;;;34.20;15.68;;;4.50;99.90;;;;;;5038715;28;20704;-82
2023/05/03 03:48:35;;;;;;;34.35;15.20;;;4.60;99.90;;;;;;5023602;28;20037;-82
2023/05/03 03:51:00;;;;;;;36.53;14.93;;;4.60;99.90;;;;;;5052900;28;20025;-81
2023/05/03 03:53:33;;;;;;;37.58;15.55;;;4.60;99.90;;;;;;5047532;28;20388;-82
2023/05/03 03:56:00;;;;;;;33.85;14.82;;;4.60;99.90;;;;;;5051749;28;20088;-81
2023/05/03 03:58:25;;;;;;;39.17;15.65;;;4.60;99.90;;;;;;5032853;28;20112;-82
2023/05/03 04:00:52;;;;;;;38.38;16.00;;;4.70;99.90;;;;;;5046450;28;20033;-81
2023/05/03 04:03:21;;;;;;;30.10;14.10;;;4.70;99.90;;;;;;5029629;28;20102;-85
2023/05/03 04:05:49;;;;;;;36.42;14.57;;;4.70;99.90;;;;;;5046081;28;20115;-85
2023/05/03 04:08:17;;;;;;;37.65;14.80;;;4.70;99.90;;;;;;5053372;28;20384;-85
2023/05/03 04:10:43;;;;;;;34.20;14.45;;;4.70;99.90;;;;;;5043065;28;20024;-85
2023/05/03 04:13:09;;;;;;;38.83;15.10;;;4.60;99.90;;;;;;5034285;28;20440;-85
2023/05/03 04:15:35;;;;;;;35.42;15.10;;;4.60;99.90;;;;;;5053230;28;20060;-85
2023/05/03 04:18:03;;;;;;;32.08;14.38;;;4.60;99.90;;;;;;5039913;28;20030;-85
2023/05/03 04:20:31;;;;;;;34.17;14.73;;;4.60;99.90;;;;;;5048272;28;20080;-86
2023/05/03 04:22:59;;;;;;;36.03;15.65;;;4.60;99.90;;;;;;5052096;28;20037;-85
2023/05/03 04:25:30;;;;;;;38.47;16.90;;;4.80;99.90;;;;;;5036678;28;20025;-85
2023/05/03 04:28:00;;;;;;;33.30;14.20;;;4.80;99.90;;;;;;5039678;28;20028;-84
2023/05/03 04:30:28;;;;;;;38.63;16.85;;;5.00;99.90;;;;;;5052896;28;20076;-85
2023/05/03 04:32:57;;;;;;;40.70;15.93;;;5.00;99.90;;;;;;5050956;28;20024;-85
2023/05/03 04:35:23;;;;;;;41.42;15.32;;;5.10;99.90;;;;;;5053173;28;20049;-85
2023/05/03 04:37:50;;;;;;;29.80;15.27;;;5.20;99.90;;;;;;5053007;28;20036;-85
2023/05/03 04:40:20;;;;;;;32.80;14.65;;;5.20;99.90;;;;;;5033400;28;20029;-85
2023/05/03 04:42:53;;;;;;;34.97;14.13;;;5.30;99.90;;;;;;5040602;28;20028;-86
2023/05/03 04:45:19;;;;;;;30.52;14.10;;;5.40;99.90;;;;;;5052960;28;20059;-85
2023/05/03 04:47:47;;;;;;;34.47;14.48;;;5.40;99.90;;;;;;5038704;28;20025;-85
2023/05/03 04:50:13;;;;;;;36.22;14.27;;;5.40;99.90;;;;;;5036766;28;20104;-85
2023/05/03 04:52:42;;;;;;;34.65;13.90;;;5.40;99.90;;;;;;5053675;28;20545;-85
2023/05/03 04:55:08;;;;;;;31.55;14.95;;;5.40;99.90;;;;;;5026360;28;20036;-85
2023/05/03 04:57:35;;;;;;;30.85;14.25;;;5.40;99.90;;;;;;5050984;28;20079;-85
2023/05/03 05:00:02;;;;;;;33.28;14.70;;;5.30;99.90;;;;;;5034475;28;20029;-86
2023/05/03 05:02:29;;;;;;;33.13;14.70;;;5.30;99.90;;;;;;5051253;28;20861;-85
2023/05/03 05:04:54;;;;;;;32.67;15.02;;;5.30;99.90;;;;;;5035368;28;20029;-85
2023/05/03 05:07:21;;;;;;;32.38;14.25;;;5.30;99.90;;;;;;5046936;28;20389;-85
2023/05/03 05:09:46;;;;;;;37.60;14.32;;;5.40;99.90;;;;;;5037345;28;20040;-84
2023/05/03 05:12:12;;;;;;;36.17;15.68;;;5.40;99.90;;;;;;5043808;28;20423;-84
2023/05/03 05:14:41;;;;;;;27.58;14.40;;;5.40;99.90;;;;;;5032242;28;20036;-85
2023/05/03 05:17:07;;;;;;;30.48;13.85;;;5.60;99.90;;;;;;5045447;28;20056;-84
2023/05/03 05:19:33;;;;;;;33.05;13.88;;;5.60;99.90;;;;;;5052339;28;20287;-85
2023/05/03 05:21:59;;;;;;;38.90;14.25;;;5.70;99.90;;;;;;5036240;28;20049;-85
2023/05/03 05:24:35;;;;;;;33.08;14.70;;;5.80;99.90;;;;;;5052025;28;20048;-85
2023/05/03 05:27:01;;;;;;;25.83;13.43;;;5.90;99.90;;;;;;5035258;28;20013;-85
2023/05/03 05:29:28;;;;;;;38.38;15.20;;;5.90;99.90;;;;;;5036219;28;20127;-85
2023/05/03 05:31:55;;;;;;;31.60;13.68;;;6.00;99.90;;;;;;5035341;28;20443;-85
2023/05/03 05:34:21;;;;;;;34.22;14.63;;;6.10;99.90;;;;;;5052068;28;20060;-84
2023/05/03 05:36:47;;;;;;;31.80;14.45;;;6.20;99.90;;;;;;5051713;28;20052;-85
2023/05/03 05:39:14;;;;;;;28.25;14.20;;;6.30;99.90;;;;;;5033449;28;20112;-85
2023/05/03 05:41:40;;;;;;;28.77;14.75;;;6.40;99.90;;;;;;5035564;28;20029;-85
2023/05/03 05:44:06;;;;;;;33.83;14.45;;;6.40;99.90;;;;;;5039775;28;20393;-85
2023/05/03 05:46:32;;;;;;;36.78;15.55;;;6.60;99.90;;;;;;5035242;28;20029;-85
2023/05/03 05:48:58;;;;;;;23.92;13.55;;;6.60;99.90;;;;;;5038658;28;20033;-85
2023/05/03 05:51:26;;;;;;;26.75;13.27;;;6.70;99.90;;;;;;5035959;28;20527;-86
2023/05/03 05:53:53;;;;;;;29.50;13.10;;;6.80;99.90;;;;;;5038961;28;20078;-85
2023/05/03 05:56:19;;;;;;;33.15;13.20;;;6.90;99.90;;;;;;5035680;28;20025;-85
2023/05/03 05:58:45;;;;;;;27.63;13.70;;;7.00;99.90;;;;;;5052365;28;20029;-85
2023/05/03 06:01:11;;;;;;;27.45;13.80;;;7.00;99.90;;;;;;5035535;28;20020;-85
2023/05/03 06:03:38;;;;;;;26.83;12.50;;;7.10;99.90;;;;;;5035029;28;20115;-86
2023/05/03 06:06:05;;;;;;;32.83;13.30;;;7.20;99.90;;;;;;5034722;28;20033;-85
2023/05/03 06:08:31;;;;;;;30.90;13.40;;;7.40;99.90;;;;;;5052261;28;20025;-85
2023/05/03 06:10:57;;;;;;;30.20;12.70;;;7.50;99.90;;;;;;5034554;28;20047;-86
2023/05/03 06:13:25;;;;;;;31.65;13.63;;;7.50;99.90;;;;;;5047181;28;20373;-85
2023/05/03 06:15:51;;;;;;;26.20;13.30;;;7.60;99.90;;;;;;5036142;28;20087;-86
2023/05/03 06:18:17;;;;;;;28.33;15.70;;;7.60;99.90;;;;;;5052325;28;20099;-86
2023/05/03 06:20:48;;;;;;;26.30;13.43;;;7.70;99.90;;;;;;5036212;28;20044;-86
2023/05/03 06:23:14;;;;;;;32.67;15.13;;;7.80;99.90;;;;;;5038148;28;20366;-86
2023/05/03 06:25:39;;;;;;;26.15;12.10;;;7.90;99.90;;;;;;5035548;28;20120;-86
2023/05/03 06:28:06;;;;;;;23.08;12.18;;;8.00;99.90;;;;;;5039799;28;20022;-85
2023/05/03 06:30:34;;;;;;;26.27;12.40;;;8.10;99.90;;;;;;5046000;28;20385;-86
2023/05/03 06:33:05;;;;;;;22.63;11.30;;;8.20;99.90;;;;;;5043680;28;20534;-85
2023/05/03 06:35:31;;;;;;;23.02;11.90;;;8.20;99.90;;;;;;5036163;28;20049;-86
2023/05/03 06:37:57;;;;;;;26.45;11.45;;;8.30;99.90;;;;;;5038464;28;20468;-85
2023/05/03 06:40:24;;;;;;;28.80;14.13;;;8.30;99.90;;;;;;5055247;28;20047;-85
2023/05/03 06:42:50;;;;;;;27.80;12.93;;;8.30;99.90;;;;;;5041411;28;20029;-86
2023/05/03 06:45:37;;;;;;;21.25;11.52;;;8.40;99.90;;;;;;5054661;28;20025;-85
2023/05/03 06:48:03;;;;;;;26.20;13.57;;;8.50;99.90;;;;;;5055012;28;20025;-86
2023/05/03 06:50:29;;;;;;;24.60;11.70;;;8.60;99.90;;;;;;5054419;28;20060;-86
2023/05/03 06:52:55;;;;;;;22.70;11.85;;;8.80;99.90;;;;;;5055210;28;20087;-86
2023/05/03 06:55:21;;;;;;;23.40;11.55;;;9.00;99.90;;;;;;5039262;28;20029;-86
2023/05/03 06:57:47;;;;;;;22.48;11.65;;;9.20;99.90;;;;;;5055451;28;20033;-86
2023/05/03 07:00:14;;;;;;;23.95;10.88;;;9.20;99.90;;;;;;5047166;28;20029;-86
2023/05/03 07:02:41;;;;;;;25.15;11.95;;;9.30;99.90;;;;;;5038760;28;20041;-86
2023/05/03 07:05:07;;;;;;;26.20;12.20;;;9.30;99.90;;;;;;5027925;28;20124;-86
2023/05/03 07:07:33;;;;;;;22.45;11.38;;;9.20;99.90;;;;;;5049794;28;20116;-86
2023/05/03 07:09:59;;;;;;;21.05;11.07;;;9.10;99.90;;;;;;5039634;28;20029;-85
2023/05/03 07:12:27;;;;;;;19.40;10.88;;;9.00;99.90;;;;;;5056187;28;20491;-86
2023/05/03 07:14:56;;;;;;;23.58;11.30;;;9.10;99.90;;;;;;5041475;28;20066;-86
2023/05/03 07:17:22;;;;;;;19.42;10.68;;;9.10;99.90;;;;;;5037861;28;20059;-86
2023/05/03 07:19:57;;;;;;;23.52;11.38;;;9.20;99.90;;;;;;5054024;28;20052;-86
2023/05/03 07:22:26;;;;;;;23.13;11.55;;;9.30;99.90;;;;;;5037563;28;20376;-86
2023/05/03 07:24:53;;;;;;;20.77;10.10;;;9.20;99.90;;;;;;5037015;28;20041;-87
2023/05/03 07:27:19;;;;;;;21.02;11.60;;;9.30;99.90;;;;;;5037501;28;20473;-86
2023/05/03 07:29:45;;;;;;;19.08;10.07;;;9.40;99.90;;;;;;5054231;28;20041;-86
2023/05/03 07:32:11;;;;;;;22.50;10.32;;;9.60;99.90;;;;;;5037414;28;20028;-86
2023/05/03 07:34:37;;;;;;;25.17;10.63;;;9.80;99.90;;;;;;5042809;28;20468;-86
2023/05/03 07:37:03;;;;;;;20.00;9.90;;;9.90;99.90;;;;;;5053953;28;20036;-87
2023/05/03 07:39:29;;;;;;;15.60;10.05;;;10.00;99.90;;;;;;5053674;28;20396;-86
2023/05/03 07:41:55;;;;;;;21.52;10.07;;;10.00;99.90;;;;;;5037188;28;20029;-86
2023/05/03 07:44:21;;;;;;;22.70;10.15;;;10.00;99.90;;;;;;5049948;28;20036;-85
2023/05/03 07:46:47;;;;;;;20.25;9.70;;;10.10;99.90;;;;;;5037582;28;20705;-86
2023/05/03 07:49:12;;;;;;;24.42;10.32;;;10.10;99.90;;;;;;5053965;28;20386;-86
2023/05/03 07:51:38;;;;;;;21.83;9.40;;;10.00;99.90;;;;;;5054389;28;20040;-86
2023/05/03 07:54:05;;;;;;;20.40;10.35;;;10.10;99.90;;;;;;5029263;28;20389;-86
2023/05/03 07:56:31;;;;;;;16.30;9.45;;;10.30;99.90;;;;;;5033839;28;20491;-86
2023/05/03 07:58:56;;;;;;;17.77;9.68;;;10.50;99.90;;;;;;5047553;28;20017;-86
2023/05/03 08:01:23;;;;;;;23.42;11.25;;;10.50;99.90;;;;;;5053908;28;20029;-85
2023/05/03 08:03:49;;;;;;;19.67;10.70;;;10.70;99.90;;;;;;5040894;28;20025;-86
2023/05/03 08:06:16;;;;;;;17.45;9.93;;;10.60;99.90;;;;;;5036625;28;20036;-86
2023/05/03 08:08:41;;;;;;;20.80;9.27;;;10.80;99.90;;;;;;5041259;28;20083;-86
2023/05/03 08:11:07;;;;;;;17.90;10.80;;;11.20;99.90;;;;;;5053247;28;20028;-86
2023/05/03 08:13:33;;;;;;;16.27;9.70;;;11.30;99.90;;;;;;5053327;28;20075;-86
2023/05/03 08:15:59;;;;;;;17.60;9.82;;;11.30;99.90;;;;;;5036243;28;20025;-86
2023/05/03 08:18:26;;;;;;;19.90;9.75;;;11.40;99.90;;;;;;5049134;28;20023;-86
2023/05/03 08:20:52;;;;;;;19.25;10.75;;;11.60;99.90;;;;;;5039592;28;20538;-86
2023/05/03 08:23:18;;;;;;;17.88;9.60;;;11.60;99.90;;;;;;5042208;28;20033;-86
2023/05/03 08:25:44;;;;;;;17.05;10.13;;;12.00;99.90;;;;;;5053250;28;20033;-86
2023/05/03 08:28:10;;;;;;;16.40;9.10;;;12.70;99.90;;;;;;5053536;28;20021;-85
2023/05/03 08:30:36;;;;;;;16.33;9.23;;;14.20;99.90;;;;;;5033541;28;20026;-87
2023/05/03 08:33:02;;;;;;;16.45;9.00;;;15.10;99.90;;;;;;5046743;28;20028;-86
2023/05/03 08:35:28;;;;;;;12.20;8.65;;;15.90;99.90;;;;;;5036418;28;20025;-86
2023/05/03 08:37:54;;;;;;;20.15;11.10;;;16.50;99.90;;;;;;5036332;28;20496;-85
2023/05/03 08:40:21;;;;;;;15.80;8.40;;;16.70;99.90;;;;;;5052769;28;20031;-86
2023/05/03 08:42:47;;;;;;;14.90;7.90;;;17.30;99.90;;;;;;5032696;28;20459;-87
2023/05/03 08:45:14;;;;;;;11.20;8.00;;;17.50;99.90;;;;;;5027929;28;20037;-88
2023/05/03 08:47:43;;;;;;;13.68;8.07;;;18.10;99.90;;;;;;5036259;28;20478;-87
2023/05/03 08:50:13;;;;;;;12.23;7.80;;;18.70;99.90;;;;;;5034765;28;20035;-87
2023/05/03 08:52:43;;;;;;;14.98;7.50;;;19.30;99.90;;;;;;5050374;28;20029;-88
2023/05/03 08:55:10;;;;;;;12.77;8.02;;;19.90;99.90;;;;;;5033839;28;20029;-87
2023/05/03 08:57:35;;;;;;;14.80;7.82;;;20.20;99.20;;;;;;5034363;28;20027;-87
2023/05/03 09:00:04;;;;;;;9.85;7.25;;;19.90;98.80;;;;;;5035861;28;20029;-86
2023/05/03 09:02:33;;;;;;;12.98;7.68;;;19.00;99.90;;;;;;5044513;28;20025;-87
2023/05/03 09:04:59;;;;;;;13.60;8.45;;;18.80;99.90;;;;;;5042603;28;20021;-87
2023/05/03 09:07:25;;;;;;;9.13;7.05;;;19.00;99.90;;;;;;5042631;28;20018;-86
2023/05/03 09:09:53;;;;;;;10.50;7.13;;;20.80;99.90;;;;;;5052388;28;20050;-86
2023/05/03 09:12:40;;;;;;;11.73;7.80;;;21.20;94.70;;;;;;5035659;28;20071;-87
2023/05/03 09:15:06;;;;;;;10.10;7.93;;;20.10;95.50;;;;;;5051200;28;20029;-86
2023/05/03 09:17:32;;;;;;;11.02;7.40;;;20.20;96.40;;;;;;5043981;28;20045;-87
2023/05/03 09:19:59;;;;;;;9.73;6.85;;;21.10;95.60;;;;;;5051496;28;20029;-88
2023/05/03 09:22:27;;;;;;;11.13;7.50;;;20.80;92.20;;;;;;5046050;28;20021;-87
2023/05/03 09:24:58;;;;;;;13.23;7.72;;;19.20;96.00;;;;;;5051540;28;20035;-87
2023/05/03 09:27:25;;;;;;;10.65;6.63;;;18.40;98.50;;;;;;5035582;28;20739;-87
2023/05/03 09:30:18;;;;;;;10.77;7.43;;;18.00;99.60;;;;;;5041117;28;20378;-87
2023/05/03 09:32:47;;;;;;;15.07;7.80;;;18.00;98.20;;;;;;5035122;28;20029;-87
2023/05/03 09:35:14;;;;;;;13.07;7.65;;;19.20;98.20;;;;;;5035157;28;20029;-87
2023/05/03 09:37:39;;;;;;;14.50;6.70;;;21.20;95.50;;;;;;5050760;28;20120;-87
2023/05/03 09:40:10;;;;;;;;;;;23.20;92.20;;;;;;5035109;28;20057;-87
2023/05/03 09:42:36;;;;;;;9.65;6.25;;;23.80;88.50;;;;;;5050445;28;20036;-87
2023/05/03 09:45:03;;;;;;;8.10;6.28;;;23.70;84.00;;;;;;5051950;28;20036;-87
2023/05/03 09:47:28;;;;;;;9.38;6.53;;;23.20;81.80;;;;;;5048239;28;20476;-86
2023/05/03 09:49:55;;;;;;;12.77;7.40;;;22.80;83.20;;;;;;5035257;28;20039;-87
2023/05/03 09:52:21;;;;;;;10.00;6.85;;;22.50;82.80;;;;;;5055427;28;20418;-87
2023/05/03 09:54:48;;;;;;;11.82;6.65;;;22.40;80.70;;;;;;5035148;28;20087;-88
2023/05/03 09:57:14;;;;;;;13.52;7.22;;;22.10;83.10;;;;;;5038435;28;20488;-88
2023/05/03 09:59:41;;;;;;;9.43;6.77;;;21.60;83.40;;;;;;5032079;28;20025;-87
2023/05/03 10:02:07;;;;;;;9.60;6.95;;;20.30;84.60;;;;;;5044504;28;20280;-87
2023/05/03 10:04:46;;;;;;;12.57;6.97;;;18.90;85.80;;;;;;5044046;28;20037;-87
2023/05/03 10:07:16;;;;;;;12.90;7.30;;;18.90;91.20;;;;;;5034895;28;20021;-88
2023/05/03 10:09:44;;;;;;;16.73;8.85;;;19.10;91.30;;;;;;5048334;28;20805;-87
2023/05/03 10:12:11;;;;;;;25.42;15.57;;;18.60;92.60;;;;;;5038694;28;20487;-87
2023/05/03 10:14:42;;;;;;;14.52;8.75;;;18.80;90.90;;;;;;5055267;28;20495;-87
2023/05/03 10:17:32;;;;;;;15.57;7.00;;;18.70;91.90;;;;;;5055470;28;20033;-86
2023/05/03 10:20:28;;;;;;;11.43;7.50;;;19.10;93.30;;;;;;5041516;28;20258;-87
2023/05/03 10:23:03;;;;;;;13.43;6.50;;;19.20;93.30;;;;;;5038796;28;20029;-87
2023/05/03 10:25:29;;;;;;;10.85;7.05;;;19.20;92.10;;;;;;5039048;28;20037;-87
2023/05/03 10:28:06;;;;;;;10.57;6.45;;;19.80;91.70;;;;;;5048020;28;20021;-88
2023/05/03 10:30:36;;;;;;;11.20;6.28;;;20.30;90.70;;;;;;5040068;28;20483;-87
2023/05/03 10:33:11;;;;;;;8.40;5.25;;;21.10;87.60;;;;;;5038774;28;20029;-88
2023/05/03 10:35:42;;;;;;;7.65;5.82;;;21.90;86.40;;;;;;5025299;28;20034;-87
2023/05/03 10:38:23;;;;;;;10.18;6.22;;;21.10;81.80;;;;;;5037556;28;20106;-87
2023/05/03 10:40:50;;;;;;;6.93;5.20;;;20.70;85.50;;;;;;5054477;28;20033;-87
2023/05/03 10:43:35;;;;;;;8.80;5.90;;;20.20;82.80;;;;;;5037824;28;20037;-86
2023/05/03 10:46:03;;;;;;;14.05;7.03;;;18.90;89.60;;;;;;5024808;28;20025;-87
2023/05/03 10:48:33;;;;;;;9.48;6.45;;;18.60;90.40;;;;;;5054464;28;20028;-87
2023/05/03 10:51:27;;;;;;;11.65;6.18;;;18.60;91.80;;;;;;5037522;28;20025;-87
2023/05/03 10:53:53;;;;;;;13.63;6.90;;;18.90;92.70;;;;;;5037573;28;20029;-88
2023/05/03 10:56:20;;;;;;;8.85;5.82;;;18.50;91.00;;;;;;5053988;28;20039;-87
2023/05/03 10:58:47;;;;;;;9.18;6.53;;;18.50;90.30;;;;;;5037702;28;20021;-87
2023/05/03 11:01:16;;;;;;;7.60;5.18;;;19.20;90.00;;;;;;5037960;28;20029;-88
2023/05/03 11:03:41;;;;;;;9.00;5.88;;;20.20;85.20;;;;;;5042649;28;20358;-87
2023/05/03 11:06:07;;;;;;;8.38;5.20;;;20.70;80.70;;;;;;5037893;28;20025;-87
2023/05/03 11:08:39;;;;;;;11.65;6.07;;;20.90;81.00;;;;;;5053063;28;20026;-87
2023/05/03 11:11:08;;;;;;;10.80;6.10;;;20.40;86.30;;;;;;5054435;28;20099;-88
2023/05/03 11:13:37;;;;;;;7.43;5.32;;;20.50;86.40;;;;;;5057938;28;20029;-86
2023/05/03 11:16:04;;;;;;;11.32;6.50;;;20.70;85.30;;;;;;5055668;28;20094;-86
2023/05/03 11:18:31;;;;;;;10.38;6.20;;;20.40;82.70;;;;;;5037394;28;20025;-87
2023/05/03 11:20:57;;;;;;;8.75;6.05;;;19.80;82.70;;;;;;5049388;28;20029;-86
2023/05/03 11:23:30;;;;;;;12.52;6.28;;;19.50;84.00;;;;;;5040464;28;20031;-87
2023/05/03 11:25:59;;;;;;;9.90;6.13;;;19.20;87.80;;;;;;5034094;28;20474;-87
2023/05/03 11:28:25;;;;;;;9.43;5.78;;;20.00;83.90;;;;;;5047167;28;20040;-87
2023/05/03 11:30:51;;;;;;;8.50;6.13;;;20.10;83.40;;;;;;5037884;28;20044;-87
2023/05/03 11:33:16;;;;;;;8.27;5.82;;;20.20;84.70;;;;;;5037248;28;20384;-87
2023/05/03 11:35:42;;;;;;;8.18;5.97;;;20.40;84.10;;;;;;5054113;28;20043;-87
2023/05/03 11:38:09;;;;;;;8.05;5.00;;;20.30;82.90;;;;;;5036810;28;20036;-87
2023/05/03 11:40:35;;;;;;;11.27;5.85;;;21.20;84.60;;;;;;5037565;28;20025;-87
2023/05/03 11:43:01;;;;;;;9.05;5.78;;;20.60;80.50;;;;;;5037288;28;20112;-86
2023/05/03 11:45:37;;;;;;;12.25;5.75;;;20.20;81.20;;;;;;5037286;28;20474;-87
2023/05/03 11:48:03;;;;;;;8.25;4.82;;;20.70;77.30;;;;;;5036868;28;20464;-87
2023/05/03 11:50:56;;;;;;;8.05;4.90;;;21.40;77.40;;;;;;5050767;28;20413;-88
2023/05/03 11:53:25;;;;;;;17.77;5.05;;;21.70;74.80;;;;;;5035361;28;20436;-87
2023/05/03 11:56:12;;;;;;;7.60;5.32;;;21.20;75.00;;;;;;5051386;28;20025;-87
2023/05/03 11:58:56;;;;;;;9.25;5.03;;;20.50;78.00;;;;;;5036460;28;20033;-87
2023/05/03 12:01:28;;;;;;;9.23;5.50;;;20.40;78.90;;;;;;5036295;28;20384;-87
2023/05/03 12:04:03;;;;;;;7.20;5.50;;;20.50;78.90;;;;;;5033211;28;20029;-87
2023/05/03 12:06:32;;;;;;;7.03;5.10;;;20.20;78.30;;;;;;5034121;28;20033;-87
2023/05/03 12:08:59;;;;;;;11.00;5.38;;;19.40;78.90;;;;;;5034543;28;20032;-86
2023/05/03 12:11:25;;;;;;;6.07;4.22;;;18.40;80.00;;;;;;5036432;28;20028;-88
2023/05/03 12:14:01;;;;;;;10.10;4.90;;;18.50;87.70;;;;;;5036171;28;20032;-87
2023/05/03 12:16:28;;;;;;;7.40;4.72;;;18.70;83.40;;;;;;5033867;28;20033;-87
2023/05/03 12:19:01;;;;;;;9.15;5.45;;;18.80;85.20;;;;;;5052607;28;20481;-87
2023/05/03 12:21:46;;;;;;;9.10;5.47;;;18.70;87.50;;;;;;5042412;28;20037;-87
2023/05/03 12:24:16;;;;;;;9.15;5.00;;;18.50;82.50;;;;;;5036289;28;20028;-87
2023/05/03 12:26:46;;;;;;;7.32;4.45;;;18.30;83.00;;;;;;5033663;28;20473;-87
2023/05/03 12:29:12;;;;;;;6.32;4.20;;;18.00;82.70;;;;;;5032734;28;20025;-87
2023/05/03 12:31:39;;;;;;;8.18;5.18;;;18.00;81.50;;;;;;5051645;28;20063;-88
2023/05/03 12:34:05;;;;;;;8.25;4.38;;;18.50;80.10;;;;;;5041025;28;20031;-87
2023/05/03 12:36:34;;;;;;;7.72;4.53;;;19.00;81.50;;;;;;5052280;28;20080;-87
2023/05/03 12:39:00;;;;;;;7.63;5.05;;;19.50;89.20;;;;;;5052624;28;20051;-87
2023/05/03 12:41:28;;;;;;;10.07;5.78;;;19.50;83.90;;;;;;5039265;28;20048;-87
2023/05/03 12:43:55;;;;;;;9.27;4.22;;;19.70;82.20;;;;;;5035547;28;20033;-88
2023/05/03 12:46:22;;;;;;;9.43;4.45;;;20.10;80.00;;;;;;5035825;28;20060;-87